sensor_id;sensor_type;location;lat;lon;timestamp;P1;durP1;ratioP1;P2;durP2;ratioP2
71513;SDS011;59335;46.652;21.272;2022-10-16T00:02:22;10.60;;;7.03;;
71513;SDS011;59335;46.652;21.272;2022-10-16T00:05:25;9.85;;;6.45;;
71513;SDS011;59335;46.652;21.272;2022-10-16T00:08:28;11.95;;;6.80;;
71513;SDS011;59335;46.652;21.272;2022-10-16T00:11:31;10.40;;;6.60;;
71513;SDS011;59335;46.652;21.272;2022-10-16T00:14:35;9.57;;;5.93;;
71513;SDS011;59335;46.652;21.272;2022-10-16T00:17:38;10.02;;;6.60;;
71513;SDS011;59335;46.652;21.272;2022-10-16T00:20:40;12.18;;;7.32;;
71513;SDS011;59335;46.652;21.272;2022-10-16T00:23:43;10.18;;;6.32;;
71513;SDS011;59335;46.652;21.272;2022-10-16T00:26:46;11.40;;;6.60;;
71513;SDS011;59335;46.652;21.272;2022-10-16T00:29:52;11.50;;;6.60;;
71513;SDS011;59335;46.652;21.272;2022-10-16T00:32:55;10.98;;;6.82;;
71513;SDS011;59335;46.652;21.272;2022-10-16T00:35:58;9.98;;;6.78;;
71513;SDS011;59335;46.652;21.272;2022-10-16T00:39:02;11.23;;;7.03;;
71513;SDS011;59335;46.652;21.272;2022-10-16T00:42:05;11.37;;;6.57;;
71513;SDS011;59335;46.652;21.272;2022-10-16T00:45:08;10.63;;;6.72;;
71513;SDS011;59335;46.652;21.272;2022-10-16T00:48:12;10.93;;;6.82;;
71513;SDS011;59335;46.652;21.272;2022-10-16T00:51:17;9.98;;;6.05;;
71513;SDS011;59335;46.652;21.272;2022-10-16T00:54:28;10.63;;;6.93;;
71513;SDS011;59335;46.652;21.272;2022-10-16T00:57:32;9.67;;;6.17;;
71513;SDS011;59335;46.652;21.272;2022-10-16T01:00:35;9.80;;;6.38;;
71513;SDS011;59335;46.652;21.272;2022-10-16T01:03:38;11.02;;;6.50;;
71513;SDS011;59335;46.652;21.272;2022-10-16T01:06:43;10.55;;;6.75;;
71513;SDS011;59335;46.652;21.272;2022-10-16T01:10:06;9.35;;;6.28;;
71513;SDS011;59335;46.652;21.272;2022-10-16T01:13:16;10.40;;;6.63;;
71513;SDS011;59335;46.652;21.272;2022-10-16T01:16:28;11.25;;;6.85;;
71513;SDS011;59335;46.652;21.272;2022-10-16T01:29:56;9.13;;;6.40;;
71513;SDS011;59335;46.652;21.272;2022-10-16T01:33:11;11.50;;;6.65;;
71513;SDS011;59335;46.652;21.272;2022-10-16T01:36:15;9.68;;;6.03;;
71513;SDS011;59335;46.652;21.272;2022-10-16T01:39:24;10.48;;;6.43;;
71513;SDS011;59335;46.652;21.272;2022-10-16T01:42:37;9.60;;;6.78;;
71513;SDS011;59335;46.652;21.272;2022-10-16T01:45:47;9.77;;;6.07;;
71513;SDS011;59335;46.652;21.272;2022-10-16T01:48:50;9.80;;;5.75;;
71513;SDS011;59335;46.652;21.272;2022-10-16T01:51:55;8.85;;;6.22;;
71513;SDS011;59335;46.652;21.272;2022-10-16T01:54:59;10.65;;;6.60;;
71513;SDS011;59335;46.652;21.272;2022-10-16T01:58:07;9.30;;;6.28;;
71513;SDS011;59335;46.652;21.272;2022-10-16T02:01:11;9.83;;;6.23;;
71513;SDS011;59335;46.652;21.272;2022-10-16T02:04:22;10.27;;;6.38;;
71513;SDS011;59335;46.652;21.272;2022-10-16T02:07:30;10.77;;;6.20;;
71513;SDS011;59335;46.652;21.272;2022-10-16T02:10:32;9.57;;;5.60;;
71513;SDS011;59335;46.652;21.272;2022-10-16T02:16:44;8.67;;;5.67;;
71513;SDS011;59335;46.652;21.272;2022-10-16T02:19:49;10.35;;;6.13;;
71513;SDS011;59335;46.652;21.272;2022-10-16T02:22:54;10.48;;;6.32;;
71513;SDS011;59335;46.652;21.272;2022-10-16T02:25:59;11.27;;;5.88;;
71513;SDS011;59335;46.652;21.272;2022-10-16T02:29:06;9.00;;;5.70;;
71513;SDS011;59335;46.652;21.272;2022-10-16T02:32:13;9.00;;;5.97;;
71513;SDS011;59335;46.652;21.272;2022-10-16T02:35:19;9.15;;;5.85;;
71513;SDS011;59335;46.652;21.272;2022-10-16T02:38:24;9.77;;;6.30;;
71513;SDS011;59335;46.652;21.272;2022-10-16T02:41:28;9.70;;;5.95;;
71513;SDS011;59335;46.652;21.272;2022-10-16T02:44:31;8.35;;;5.70;;
71513;SDS011;59335;46.652;21.272;2022-10-16T02:47:34;10.53;;;5.83;;
71513;SDS011;59335;46.652;21.272;2022-10-16T02:50:37;10.02;;;5.55;;
71513;SDS011;59335;46.652;21.272;2022-10-16T02:53:39;9.75;;;5.95;;
71513;SDS011;59335;46.652;21.272;2022-10-16T02:56:42;9.65;;;5.72;;
71513;SDS011;59335;46.652;21.272;2022-10-16T02:59:44;8.40;;;5.63;;
71513;SDS011;59335;46.652;21.272;2022-10-16T03:02:47;8.67;;;5.87;;
71513;SDS011;59335;46.652;21.272;2022-10-16T03:05:50;10.18;;;6.15;;
71513;SDS011;59335;46.652;21.272;2022-10-16T03:08:52;10.45;;;6.30;;
71513;SDS011;59335;46.652;21.272;2022-10-16T03:11:55;10.55;;;6.18;;
71513;SDS011;59335;46.652;21.272;2022-10-16T03:14:58;9.15;;;5.90;;
71513;SDS011;59335;46.652;21.272;2022-10-16T03:18:00;10.23;;;5.80;;
71513;SDS011;59335;46.652;21.272;2022-10-16T03:21:03;9.00;;;6.00;;
71513;SDS011;59335;46.652;21.272;2022-10-16T03:24:06;10.05;;;5.80;;
71513;SDS011;59335;46.652;21.272;2022-10-16T03:27:08;10.02;;;6.13;;
71513;SDS011;59335;46.652;21.272;2022-10-16T03:30:11;10.30;;;6.50;;
71513;SDS011;59335;46.652;21.272;2022-10-16T03:33:14;9.03;;;5.87;;
71513;SDS011;59335;46.652;21.272;2022-10-16T03:36:17;9.52;;;5.80;;
71513;SDS011;59335;46.652;21.272;2022-10-16T03:39:19;9.98;;;6.32;;
71513;SDS011;59335;46.652;21.272;2022-10-16T03:42:22;9.52;;;6.18;;
71513;SDS011;59335;46.652;21.272;2022-10-16T03:45:24;9.32;;;6.13;;
71513;SDS011;59335;46.652;21.272;2022-10-16T03:48:28;8.87;;;5.23;;
71513;SDS011;59335;46.652;21.272;2022-10-16T03:51:31;9.73;;;5.72;;
71513;SDS011;59335;46.652;21.272;2022-10-16T03:54:33;9.30;;;6.18;;
71513;SDS011;59335;46.652;21.272;2022-10-16T03:57:36;7.88;;;5.22;;
71513;SDS011;59335;46.652;21.272;2022-10-16T04:00:44;10.45;;;6.00;;
71513;SDS011;59335;46.652;21.272;2022-10-16T04:03:48;10.27;;;5.90;;
71513;SDS011;59335;46.652;21.272;2022-10-16T04:06:51;8.85;;;5.53;;
71513;SDS011;59335;46.652;21.272;2022-10-16T04:09:54;8.68;;;5.50;;
71513;SDS011;59335;46.652;21.272;2022-10-16T04:12:56;8.85;;;5.38;;
71513;SDS011;59335;46.652;21.272;2022-10-16T04:16:03;8.77;;;5.18;;
71513;SDS011;59335;46.652;21.272;2022-10-16T04:19:08;8.63;;;5.57;;
71513;SDS011;59335;46.652;21.272;2022-10-16T04:22:13;9.23;;;5.65;;
71513;SDS011;59335;46.652;21.272;2022-10-16T04:25:16;9.93;;;5.60;;
71513;SDS011;59335;46.652;21.272;2022-10-16T04:28:18;8.57;;;5.40;;
71513;SDS011;59335;46.652;21.272;2022-10-16T04:31:21;9.20;;;5.78;;
71513;SDS011;59335;46.652;21.272;2022-10-16T04:34:24;10.13;;;5.43;;
71513;SDS011;59335;46.652;21.272;2022-10-16T04:37:27;8.98;;;5.40;;
71513;SDS011;59335;46.652;21.272;2022-10-16T04:40:30;8.25;;;5.18;;
71513;SDS011;59335;46.652;21.272;2022-10-16T04:43:38;10.48;;;5.53;;
71513;SDS011;59335;46.652;21.272;2022-10-16T04:46:41;8.32;;;5.28;;
71513;SDS011;59335;46.652;21.272;2022-10-16T04:49:43;7.97;;;5.03;;
71513;SDS011;59335;46.652;21.272;2022-10-16T04:52:46;9.25;;;5.80;;
71513;SDS011;59335;46.652;21.272;2022-10-16T04:55:49;8.98;;;5.30;;
71513;SDS011;59335;46.652;21.272;2022-10-16T04:58:52;9.38;;;5.57;;
71513;SDS011;59335;46.652;21.272;2022-10-16T05:01:55;8.65;;;5.60;;
71513;SDS011;59335;46.652;21.272;2022-10-16T05:05:00;9.07;;;5.73;;
71513;SDS011;59335;46.652;21.272;2022-10-16T05:08:02;10.13;;;6.25;;
71513;SDS011;59335;46.652;21.272;2022-10-16T05:11:06;10.57;;;6.15;;
71513;SDS011;59335;46.652;21.272;2022-10-16T05:14:09;10.00;;;5.75;;
71513;SDS011;59335;46.652;21.272;2022-10-16T05:17:13;9.40;;;5.55;;
71513;SDS011;59335;46.652;21.272;2022-10-16T05:20:16;9.57;;;5.60;;
71513;SDS011;59335;46.652;21.272;2022-10-16T05:23:18;8.68;;;5.10;;
71513;SDS011;59335;46.652;21.272;2022-10-16T05:26:21;9.32;;;5.43;;
71513;SDS011;59335;46.652;21.272;2022-10-16T05:29:24;9.88;;;5.32;;
71513;SDS011;59335;46.652;21.272;2022-10-16T05:32:26;9.05;;;5.50;;
71513;SDS011;59335;46.652;21.272;2022-10-16T05:35:29;9.83;;;5.40;;
71513;SDS011;59335;46.652;21.272;2022-10-16T05:38:32;9.60;;;5.20;;
71513;SDS011;59335;46.652;21.272;2022-10-16T05:41:34;9.00;;;5.70;;
71513;SDS011;59335;46.652;21.272;2022-10-16T05:44:37;11.20;;;6.22;;
71513;SDS011;59335;46.652;21.272;2022-10-16T05:47:39;7.97;;;5.43;;
71513;SDS011;59335;46.652;21.272;2022-10-16T05:50:42;8.37;;;5.10;;
71513;SDS011;59335;46.652;21.272;2022-10-16T05:53:45;9.93;;;5.53;;
71513;SDS011;59335;46.652;21.272;2022-10-16T05:56:48;8.82;;;5.68;;
71513;SDS011;59335;46.652;21.272;2022-10-16T05:59:50;9.07;;;5.50;;
71513;SDS011;59335;46.652;21.272;2022-10-16T06:02:53;8.57;;;5.40;;
71513;SDS011;59335;46.652;21.272;2022-10-16T06:05:56;8.93;;;5.23;;
71513;SDS011;59335;46.652;21.272;2022-10-16T06:09:01;8.30;;;5.15;;
71513;SDS011;59335;46.652;21.272;2022-10-16T06:12:04;9.88;;;5.80;;
71513;SDS011;59335;46.652;21.272;2022-10-16T06:15:07;8.57;;;5.60;;
71513;SDS011;59335;46.652;21.272;2022-10-16T06:18:09;8.55;;;5.13;;
71513;SDS011;59335;46.652;21.272;2022-10-16T06:21:19;9.10;;;5.23;;
71513;SDS011;59335;46.652;21.272;2022-10-16T06:24:24;9.48;;;5.60;;
71513;SDS011;59335;46.652;21.272;2022-10-16T06:27:27;9.32;;;5.25;;
71513;SDS011;59335;46.652;21.272;2022-10-16T06:30:30;9.38;;;5.40;;
71513;SDS011;59335;46.652;21.272;2022-10-16T06:33:33;8.40;;;5.05;;
71513;SDS011;59335;46.652;21.272;2022-10-16T06:36:39;8.57;;;5.20;;
71513;SDS011;59335;46.652;21.272;2022-10-16T06:39:41;8.32;;;5.22;;
71513;SDS011;59335;46.652;21.272;2022-10-16T06:42:44;7.97;;;5.20;;
71513;SDS011;59335;46.652;21.272;2022-10-16T06:45:53;7.68;;;5.10;;
71513;SDS011;59335;46.652;21.272;2022-10-16T06:48:57;8.55;;;5.35;;
71513;SDS011;59335;46.652;21.272;2022-10-16T06:52:00;8.60;;;5.73;;
71513;SDS011;59335;46.652;21.272;2022-10-16T06:55:04;8.18;;;4.97;;
71513;SDS011;59335;46.652;21.272;2022-10-16T06:58:08;7.95;;;5.50;;
71513;SDS011;59335;46.652;21.272;2022-10-16T07:01:12;8.60;;;5.10;;
71513;SDS011;59335;46.652;21.272;2022-10-16T07:04:16;8.90;;;4.97;;
71513;SDS011;59335;46.652;21.272;2022-10-16T07:07:20;7.87;;;4.90;;
71513;SDS011;59335;46.652;21.272;2022-10-16T07:10:22;7.80;;;5.10;;
71513;SDS011;59335;46.652;21.272;2022-10-16T07:13:26;8.50;;;5.65;;
71513;SDS011;59335;46.652;21.272;2022-10-16T07:16:30;8.05;;;5.03;;
71513;SDS011;59335;46.652;21.272;2022-10-16T07:19:33;8.52;;;5.00;;
71513;SDS011;59335;46.652;21.272;2022-10-16T07:22:36;8.67;;;4.70;;
71513;SDS011;59335;46.652;21.272;2022-10-16T07:25:38;9.13;;;5.22;;
71513;SDS011;59335;46.652;21.272;2022-10-16T07:28:42;7.13;;;5.15;;
71513;SDS011;59335;46.652;21.272;2022-10-16T07:31:46;9.30;;;5.13;;
71513;SDS011;59335;46.652;21.272;2022-10-16T07:34:51;9.07;;;5.40;;
71513;SDS011;59335;46.652;21.272;2022-10-16T07:37:55;7.00;;;4.50;;
71513;SDS011;59335;46.652;21.272;2022-10-16T07:40:58;7.93;;;4.65;;
71513;SDS011;59335;46.652;21.272;2022-10-16T07:44:02;8.70;;;5.03;;
71513;SDS011;59335;46.652;21.272;2022-10-16T07:47:05;8.40;;;4.90;;
71513;SDS011;59335;46.652;21.272;2022-10-16T07:50:10;8.10;;;5.10;;
71513;SDS011;59335;46.652;21.272;2022-10-16T07:53:12;7.43;;;4.73;;
71513;SDS011;59335;46.652;21.272;2022-10-16T07:56:16;7.78;;;4.82;;
71513;SDS011;59335;46.652;21.272;2022-10-16T07:59:20;8.18;;;5.20;;
71513;SDS011;59335;46.652;21.272;2022-10-16T08:02:22;8.65;;;5.05;;
71513;SDS011;59335;46.652;21.272;2022-10-16T08:05:26;9.27;;;5.28;;
71513;SDS011;59335;46.652;21.272;2022-10-16T08:08:29;8.43;;;5.30;;
71513;SDS011;59335;46.652;21.272;2022-10-16T08:11:32;7.70;;;4.93;;
71513;SDS011;59335;46.652;21.272;2022-10-16T08:14:35;7.88;;;4.90;;
71513;SDS011;59335;46.652;21.272;2022-10-16T08:17:38;8.10;;;4.53;;
71513;SDS011;59335;46.652;21.272;2022-10-16T08:20:41;7.35;;;4.57;;
71513;SDS011;59335;46.652;21.272;2022-10-16T08:23:45;7.13;;;4.33;;
71513;SDS011;59335;46.652;21.272;2022-10-16T08:26:49;6.65;;;4.40;;
71513;SDS011;59335;46.652;21.272;2022-10-16T08:29:51;7.90;;;5.00;;
71513;SDS011;59335;46.652;21.272;2022-10-16T08:32:54;7.65;;;4.70;;
71513;SDS011;59335;46.652;21.272;2022-10-16T08:35:57;7.25;;;4.50;;
71513;SDS011;59335;46.652;21.272;2022-10-16T08:38:59;7.77;;;4.87;;
71513;SDS011;59335;46.652;21.272;2022-10-16T08:42:23;6.80;;;4.57;;
71513;SDS011;59335;46.652;21.272;2022-10-16T08:49:23;7.75;;;4.53;;
71513;SDS011;59335;46.652;21.272;2022-10-16T08:52:29;7.93;;;4.93;;
71513;SDS011;59335;46.652;21.272;2022-10-16T08:55:38;8.07;;;4.80;;
71513;SDS011;59335;46.652;21.272;2022-10-16T08:58:46;8.10;;;4.43;;
71513;SDS011;59335;46.652;21.272;2022-10-16T09:01:50;7.10;;;4.45;;
71513;SDS011;59335;46.652;21.272;2022-10-16T09:05:15;6.95;;;4.32;;
71513;SDS011;59335;46.652;21.272;2022-10-16T09:11:45;7.47;;;4.43;;
71513;SDS011;59335;46.652;21.272;2022-10-16T09:18:12;7.93;;;4.50;;
71513;SDS011;59335;46.652;21.272;2022-10-16T09:21:35;7.30;;;4.68;;
71513;SDS011;59335;46.652;21.272;2022-10-16T09:24:39;8.48;;;4.80;;
71513;SDS011;59335;46.652;21.272;2022-10-16T09:27:43;7.40;;;4.07;;
71513;SDS011;59335;46.652;21.272;2022-10-16T09:30:48;7.47;;;4.60;;
71513;SDS011;59335;46.652;21.272;2022-10-16T09:33:58;7.75;;;4.53;;
71513;SDS011;59335;46.652;21.272;2022-10-16T09:37:09;7.63;;;4.40;;
71513;SDS011;59335;46.652;21.272;2022-10-16T09:46:42;7.93;;;4.15;;
71513;SDS011;59335;46.652;21.272;2022-10-16T09:49:51;7.22;;;4.35;;
71513;SDS011;59335;46.652;21.272;2022-10-16T09:53:06;7.28;;;4.55;;
71513;SDS011;59335;46.652;21.272;2022-10-16T09:56:23;6.28;;;4.00;;
71513;SDS011;59335;46.652;21.272;2022-10-16T09:59:31;7.10;;;4.30;;
71513;SDS011;59335;46.652;21.272;2022-10-16T10:02:34;7.90;;;4.60;;
71513;SDS011;59335;46.652;21.272;2022-10-16T10:05:40;7.15;;;4.22;;
71513;SDS011;59335;46.652;21.272;2022-10-16T10:11:59;7.38;;;4.55;;
71513;SDS011;59335;46.652;21.272;2022-10-16T10:15:09;7.10;;;4.20;;
71513;SDS011;59335;46.652;21.272;2022-10-16T10:18:15;7.85;;;4.57;;
71513;SDS011;59335;46.652;21.272;2022-10-16T10:21:23;6.45;;;4.20;;
71513;SDS011;59335;46.652;21.272;2022-10-16T10:24:26;7.63;;;4.47;;
71513;SDS011;59335;46.652;21.272;2022-10-16T10:28:15;8.10;;;4.55;;
71513;SDS011;59335;46.652;21.272;2022-10-16T10:37:35;7.38;;;4.38;;
71513;SDS011;59335;46.652;21.272;2022-10-16T10:41:02;7.68;;;4.28;;
71513;SDS011;59335;46.652;21.272;2022-10-16T10:47:48;6.17;;;4.00;;
71513;SDS011;59335;46.652;21.272;2022-10-16T11:01:12;6.90;;;4.20;;
71513;SDS011;59335;46.652;21.272;2022-10-16T11:11:08;7.00;;;4.35;;
71513;SDS011;59335;46.652;21.272;2022-10-16T11:14:19;7.03;;;4.03;;
71513;SDS011;59335;46.652;21.272;2022-10-16T11:21:22;7.23;;;4.60;;
71513;SDS011;59335;46.652;21.272;2022-10-16T11:24:41;7.10;;;4.22;;
71513;SDS011;59335;46.652;21.272;2022-10-16T11:27:52;6.75;;;3.95;;
71513;SDS011;59335;46.652;21.272;2022-10-16T11:31:03;6.82;;;3.97;;
71513;SDS011;59335;46.652;21.272;2022-10-16T11:34:22;7.65;;;3.90;;
71513;SDS011;59335;46.652;21.272;2022-10-16T11:37:48;7.00;;;4.20;;
71513;SDS011;59335;46.652;21.272;2022-10-16T11:40:54;7.47;;;4.10;;
71513;SDS011;59335;46.652;21.272;2022-10-16T11:44:20;6.78;;;3.83;;
71513;SDS011;59335;46.652;21.272;2022-10-16T11:54:55;6.80;;;3.90;;
71513;SDS011;59335;46.652;21.272;2022-10-16T11:58:01;8.15;;;4.25;;
71513;SDS011;59335;46.652;21.272;2022-10-16T12:04:31;8.10;;;4.30;;
71513;SDS011;59335;46.652;21.272;2022-10-16T12:07:51;7.40;;;4.20;;
71513;SDS011;59335;46.652;21.272;2022-10-16T12:11:20;6.87;;;4.13;;
71513;SDS011;59335;46.652;21.272;2022-10-16T12:17:36;6.90;;;4.10;;
71513;SDS011;59335;46.652;21.272;2022-10-16T12:20:39;7.88;;;4.10;;
71513;SDS011;59335;46.652;21.272;2022-10-16T12:23:49;6.97;;;3.83;;
71513;SDS011;59335;46.652;21.272;2022-10-16T12:26:53;7.20;;;4.03;;
71513;SDS011;59335;46.652;21.272;2022-10-16T12:30:00;7.13;;;3.90;;
71513;SDS011;59335;46.652;21.272;2022-10-16T12:33:06;7.32;;;4.18;;
71513;SDS011;59335;46.652;21.272;2022-10-16T12:36:27;5.68;;;3.63;;
71513;SDS011;59335;46.652;21.272;2022-10-16T12:39:37;6.20;;;3.80;;
71513;SDS011;59335;46.652;21.272;2022-10-16T12:42:40;6.27;;;3.93;;
71513;SDS011;59335;46.652;21.272;2022-10-16T12:45:43;6.50;;;3.80;;
71513;SDS011;59335;46.652;21.272;2022-10-16T12:48:47;6.30;;;3.85;;
71513;SDS011;59335;46.652;21.272;2022-10-16T12:52:23;6.45;;;4.07;;
71513;SDS011;59335;46.652;21.272;2022-10-16T13:06:36;6.75;;;4.03;;
71513;SDS011;59335;46.652;21.272;2022-10-16T13:10:22;6.18;;;3.75;;
71513;SDS011;59335;46.652;21.272;2022-10-16T13:13:42;6.32;;;3.92;;
71513;SDS011;59335;46.652;21.272;2022-10-16T13:23:22;6.93;;;4.15;;
71513;SDS011;59335;46.652;21.272;2022-10-16T13:29:32;5.97;;;3.63;;
71513;SDS011;59335;46.652;21.272;2022-10-16T13:32:36;6.83;;;3.90;;
71513;SDS011;59335;46.652;21.272;2022-10-16T13:35:46;7.68;;;3.92;;
71513;SDS011;59335;46.652;21.272;2022-10-16T13:39:27;6.97;;;4.00;;
71513;SDS011;59335;46.652;21.272;2022-10-16T13:42:31;6.28;;;3.70;;
71513;SDS011;59335;46.652;21.272;2022-10-16T13:45:35;7.75;;;3.88;;
71513;SDS011;59335;46.652;21.272;2022-10-16T13:48:38;6.10;;;3.83;;
71513;SDS011;59335;46.652;21.272;2022-10-16T13:51:41;6.80;;;4.03;;
71513;SDS011;59335;46.652;21.272;2022-10-16T13:54:44;6.80;;;3.78;;
71513;SDS011;59335;46.652;21.272;2022-10-16T13:57:46;7.03;;;4.00;;
71513;SDS011;59335;46.652;21.272;2022-10-16T14:00:52;6.35;;;3.60;;
71513;SDS011;59335;46.652;21.272;2022-10-16T14:04:07;7.07;;;3.77;;
71513;SDS011;59335;46.652;21.272;2022-10-16T14:07:14;6.10;;;3.70;;
71513;SDS011;59335;46.652;21.272;2022-10-16T14:10:27;6.88;;;3.95;;
71513;SDS011;59335;46.652;21.272;2022-10-16T14:13:37;6.53;;;4.07;;
71513;SDS011;59335;46.652;21.272;2022-10-16T14:16:42;6.50;;;3.75;;
71513;SDS011;59335;46.652;21.272;2022-10-16T14:19:46;6.03;;;3.90;;
71513;SDS011;59335;46.652;21.272;2022-10-16T14:22:58;5.50;;;3.33;;
71513;SDS011;59335;46.652;21.272;2022-10-16T14:26:28;6.85;;;4.03;;
71513;SDS011;59335;46.652;21.272;2022-10-16T14:29:31;6.32;;;3.53;;
71513;SDS011;59335;46.652;21.272;2022-10-16T14:32:34;6.50;;;3.80;;
71513;SDS011;59335;46.652;21.272;2022-10-16T14:35:37;6.80;;;3.57;;
71513;SDS011;59335;46.652;21.272;2022-10-16T14:38:42;6.70;;;4.03;;
71513;SDS011;59335;46.652;21.272;2022-10-16T14:42:04;6.80;;;3.90;;
71513;SDS011;59335;46.652;21.272;2022-10-16T14:45:07;5.72;;;3.33;;
71513;SDS011;59335;46.652;21.272;2022-10-16T14:48:15;6.10;;;3.60;;
71513;SDS011;59335;46.652;21.272;2022-10-16T14:51:22;6.47;;;3.57;;
71513;SDS011;59335;46.652;21.272;2022-10-16T14:54:24;6.50;;;3.80;;
71513;SDS011;59335;46.652;21.272;2022-10-16T14:57:27;6.00;;;3.50;;
71513;SDS011;59335;46.652;21.272;2022-10-16T15:00:33;6.32;;;3.85;;
71513;SDS011;59335;46.652;21.272;2022-10-16T15:03:37;6.28;;;3.80;;
71513;SDS011;59335;46.652;21.272;2022-10-16T15:06:40;6.07;;;3.60;;
71513;SDS011;59335;46.652;21.272;2022-10-16T15:09:43;6.60;;;3.70;;
71513;SDS011;59335;46.652;21.272;2022-10-16T15:12:50;6.32;;;4.00;;
71513;SDS011;59335;46.652;21.272;2022-10-16T15:15:54;6.10;;;3.75;;
71513;SDS011;59335;46.652;21.272;2022-10-16T15:18:57;5.90;;;3.70;;
71513;SDS011;59335;46.652;21.272;2022-10-16T15:22:00;6.17;;;3.70;;
71513;SDS011;59335;46.652;21.272;2022-10-16T15:25:07;6.53;;;3.80;;
71513;SDS011;59335;46.652;21.272;2022-10-16T15:28:22;6.53;;;3.70;;
71513;SDS011;59335;46.652;21.272;2022-10-16T15:31:26;6.85;;;4.00;;
71513;SDS011;59335;46.652;21.272;2022-10-16T15:34:29;5.97;;;3.72;;
71513;SDS011;59335;46.652;21.272;2022-10-16T15:37:32;7.13;;;3.80;;
71513;SDS011;59335;46.652;21.272;2022-10-16T15:40:35;6.30;;;3.83;;
71513;SDS011;59335;46.652;21.272;2022-10-16T15:43:38;7.00;;;3.95;;
71513;SDS011;59335;46.652;21.272;2022-10-16T15:46:41;6.80;;;3.70;;
71513;SDS011;59335;46.652;21.272;2022-10-16T15:49:45;7.25;;;4.13;;
71513;SDS011;59335;46.652;21.272;2022-10-16T15:52:49;6.73;;;4.00;;
71513;SDS011;59335;46.652;21.272;2022-10-16T15:55:52;6.53;;;4.10;;
71513;SDS011;59335;46.652;21.272;2022-10-16T15:58:55;6.22;;;3.53;;
71513;SDS011;59335;46.652;21.272;2022-10-16T16:01:59;6.65;;;3.65;;
71513;SDS011;59335;46.652;21.272;2022-10-16T16:05:03;6.07;;;3.80;;
71513;SDS011;59335;46.652;21.272;2022-10-16T16:08:06;6.27;;;3.87;;
71513;SDS011;59335;46.652;21.272;2022-10-16T16:11:12;6.30;;;3.80;;
71513;SDS011;59335;46.652;21.272;2022-10-16T16:14:15;6.07;;;3.85;;
71513;SDS011;59335;46.652;21.272;2022-10-16T16:17:19;6.90;;;3.78;;
71513;SDS011;59335;46.652;21.272;2022-10-16T16:20:21;6.65;;;3.70;;
71513;SDS011;59335;46.652;21.272;2022-10-16T16:23:24;7.30;;;4.00;;
71513;SDS011;59335;46.652;21.272;2022-10-16T16:26:28;7.10;;;4.30;;
71513;SDS011;59335;46.652;21.272;2022-10-16T16:29:37;7.05;;;3.90;;
71513;SDS011;59335;46.652;21.272;2022-10-16T16:32:40;8.10;;;4.20;;
71513;SDS011;59335;46.652;21.272;2022-10-16T16:35:42;7.07;;;4.20;;
71513;SDS011;59335;46.652;21.272;2022-10-16T16:38:45;7.10;;;4.00;;
71513;SDS011;59335;46.652;21.272;2022-10-16T16:41:48;7.45;;;4.47;;
71513;SDS011;59335;46.652;21.272;2022-10-16T16:44:51;8.32;;;4.55;;
71513;SDS011;59335;46.652;21.272;2022-10-16T16:47:53;8.23;;;5.03;;
71513;SDS011;59335;46.652;21.272;2022-10-16T16:50:56;8.50;;;5.50;;
71513;SDS011;59335;46.652;21.272;2022-10-16T16:54:04;9.00;;;5.40;;
71513;SDS011;59335;46.652;21.272;2022-10-16T16:57:09;11.07;;;5.97;;
71513;SDS011;59335;46.652;21.272;2022-10-16T17:00:13;13.10;;;8.70;;
71513;SDS011;59335;46.652;21.272;2022-10-16T17:03:16;10.65;;;7.57;;
71513;SDS011;59335;46.652;21.272;2022-10-16T17:06:20;12.32;;;7.10;;
71513;SDS011;59335;46.652;21.272;2022-10-16T17:09:25;11.23;;;6.77;;
71513;SDS011;59335;46.652;21.272;2022-10-16T17:12:29;13.25;;;7.35;;
71513;SDS011;59335;46.652;21.272;2022-10-16T17:15:33;11.48;;;7.53;;
71513;SDS011;59335;46.652;21.272;2022-10-16T17:18:36;13.07;;;8.70;;
71513;SDS011;59335;46.652;21.272;2022-10-16T17:21:39;14.23;;;8.38;;
71513;SDS011;59335;46.652;21.272;2022-10-16T17:24:43;12.33;;;7.60;;
71513;SDS011;59335;46.652;21.272;2022-10-16T17:27:56;12.90;;;7.60;;
71513;SDS011;59335;46.652;21.272;2022-10-16T17:31:09;12.02;;;7.35;;
71513;SDS011;59335;46.652;21.272;2022-10-16T17:34:17;13.43;;;7.40;;
71513;SDS011;59335;46.652;21.272;2022-10-16T17:37:21;12.27;;;7.75;;
71513;SDS011;59335;46.652;21.272;2022-10-16T17:40:25;11.57;;;7.73;;
71513;SDS011;59335;46.652;21.272;2022-10-16T17:43:29;11.60;;;7.85;;
71513;SDS011;59335;46.652;21.272;2022-10-16T17:46:33;13.52;;;8.00;;
71513;SDS011;59335;46.652;21.272;2022-10-16T17:49:42;12.95;;;7.40;;
71513;SDS011;59335;46.652;21.272;2022-10-16T17:52:46;13.20;;;8.07;;
71513;SDS011;59335;46.652;21.272;2022-10-16T17:55:50;12.87;;;7.83;;
71513;SDS011;59335;46.652;21.272;2022-10-16T17:58:59;12.50;;;8.00;;
71513;SDS011;59335;46.652;21.272;2022-10-16T18:02:04;15.30;;;8.40;;
71513;SDS011;59335;46.652;21.272;2022-10-16T18:05:08;13.20;;;8.10;;
71513;SDS011;59335;46.652;21.272;2022-10-16T18:08:15;12.98;;;8.23;;
71513;SDS011;59335;46.652;21.272;2022-10-16T18:11:19;13.90;;;8.53;;
71513;SDS011;59335;46.652;21.272;2022-10-16T18:14:23;13.05;;;8.02;;
71513;SDS011;59335;46.652;21.272;2022-10-16T18:17:27;15.15;;;8.35;;
71513;SDS011;59335;46.652;21.272;2022-10-16T18:20:31;13.93;;;8.10;;
71513;SDS011;59335;46.652;21.272;2022-10-16T18:23:35;13.32;;;8.65;;
71513;SDS011;59335;46.652;21.272;2022-10-16T18:26:39;12.90;;;8.53;;
71513;SDS011;59335;46.652;21.272;2022-10-16T18:29:42;12.55;;;7.82;;
71513;SDS011;59335;46.652;21.272;2022-10-16T18:32:47;14.48;;;8.70;;
71513;SDS011;59335;46.652;21.272;2022-10-16T18:35:52;12.38;;;8.05;;
71513;SDS011;59335;46.652;21.272;2022-10-16T18:38:58;14.23;;;8.43;;
71513;SDS011;59335;46.652;21.272;2022-10-16T18:42:03;14.70;;;8.60;;
71513;SDS011;59335;46.652;21.272;2022-10-16T18:45:07;14.32;;;8.40;;
71513;SDS011;59335;46.652;21.272;2022-10-16T18:48:10;15.60;;;9.15;;
71513;SDS011;59335;46.652;21.272;2022-10-16T18:51:17;15.75;;;8.88;;
71513;SDS011;59335;46.652;21.272;2022-10-16T18:54:22;15.68;;;8.77;;
71513;SDS011;59335;46.652;21.272;2022-10-16T18:57:29;14.80;;;8.73;;
71513;SDS011;59335;46.652;21.272;2022-10-16T19:00:33;15.57;;;8.52;;
71513;SDS011;59335;46.652;21.272;2022-10-16T19:03:39;14.70;;;8.80;;
71513;SDS011;59335;46.652;21.272;2022-10-16T19:06:45;14.25;;;8.63;;
71513;SDS011;59335;46.652;21.272;2022-10-16T19:09:51;14.60;;;9.07;;
71513;SDS011;59335;46.652;21.272;2022-10-16T19:12:54;14.40;;;8.73;;
71513;SDS011;59335;46.652;21.272;2022-10-16T19:15:57;14.73;;;8.82;;
71513;SDS011;59335;46.652;21.272;2022-10-16T19:19:20;14.70;;;9.30;;
71513;SDS011;59335;46.652;21.272;2022-10-16T19:22:25;14.05;;;8.82;;
71513;SDS011;59335;46.652;21.272;2022-10-16T19:25:51;16.52;;;9.35;;
71513;SDS011;59335;46.652;21.272;2022-10-16T19:28:55;16.00;;;9.57;;
71513;SDS011;59335;46.652;21.272;2022-10-16T19:32:01;16.40;;;9.40;;
71513;SDS011;59335;46.652;21.272;2022-10-16T19:35:08;16.70;;;9.70;;
71513;SDS011;59335;46.652;21.272;2022-10-16T19:38:12;16.00;;;9.82;;
71513;SDS011;59335;46.652;21.272;2022-10-16T19:41:15;16.33;;;10.55;;
71513;SDS011;59335;46.652;21.272;2022-10-16T19:44:19;16.37;;;10.13;;
71513;SDS011;59335;46.652;21.272;2022-10-16T19:47:21;16.88;;;10.32;;
71513;SDS011;59335;46.652;21.272;2022-10-16T19:50:24;15.27;;;10.10;;
71513;SDS011;59335;46.652;21.272;2022-10-16T19:53:27;15.43;;;9.77;;
71513;SDS011;59335;46.652;21.272;2022-10-16T19:56:31;16.42;;;10.18;;
71513;SDS011;59335;46.652;21.272;2022-10-16T19:59:35;17.47;;;10.20;;